createdAt,value
2023-02-23T00:02:41.497Z,10.75
2023-02-23T00:05:35.154Z,12.10
2023-02-23T00:08:20.252Z,11.27
2023-02-23T00:11:07.875Z,12.38
2023-02-23T00:13:53.552Z,9.63
2023-02-23T00:16:39.005Z,10.45
2023-02-23T00:19:25.215Z,11.02
2023-02-23T00:26:20.641Z,13.27
2023-02-23T00:29:12.790Z,9.88
2023-02-23T00:36:11.576Z,10.20
2023-02-23T00:39:00.482Z,9.87
2023-02-23T00:41:46.698Z,10.98
2023-02-23T00:44:35.117Z,9.13
2023-02-23T00:47:20.557Z,11.15
2023-02-23T00:50:06.209Z,10.52
2023-02-23T00:52:51.447Z,8.75
2023-02-23T00:55:41.620Z,10.13
2023-02-23T00:58:27.213Z,10.40
2023-02-23T01:01:13.882Z,9.35
2023-02-23T01:03:59.093Z,8.23
2023-02-23T01:06:46.127Z,10.05
2023-02-23T01:09:31.266Z,8.93
2023-02-23T01:12:16.880Z,10.30
2023-02-23T01:15:03.525Z,10.70
2023-02-23T01:17:48.895Z,9.80
2023-02-23T01:20:36.155Z,8.52
2023-02-23T01:23:22.714Z,10.45
2023-02-23T01:26:25.679Z,10.35
2023-02-23T01:29:13.906Z,11.15
2023-02-23T01:31:58.996Z,10.18
2023-02-23T01:34:44.456Z,10.02
2023-02-23T01:37:30.066Z,10.55
2023-02-23T01:40:28.916Z,10.50
2023-02-23T01:43:26.033Z,11.38
2023-02-23T01:46:11.403Z,8.77
2023-02-23T01:48:57.537Z,10.38
2023-02-23T01:51:55.567Z,8.90
2023-02-23T01:54:51.002Z,9.40
2023-02-23T01:57:36.666Z,10.60
2023-02-23T02:00:26.144Z,11.75
2023-02-23T02:03:17.440Z,10.38
2023-02-23T02:06:04.594Z,10.00
2023-02-23T02:08:55.027Z,15.82
2023-02-23T02:11:44.393Z,11.70
2023-02-23T02:14:31.602Z,10.95
2023-02-23T02:17:30.041Z,13.98
2023-02-23T02:20:33.056Z,10.90
2023-02-23T02:23:18.484Z,10.80
2023-02-23T02:26:24.330Z,10.02
2023-02-23T02:29:33.587Z,13.55
2023-02-23T02:32:31.765Z,10.55
2023-02-23T02:35:50.537Z,11.48
2023-02-23T02:38:53.428Z,12.35
2023-02-23T02:41:53.538Z,9.18
2023-02-23T02:44:44.314Z,10.85
2023-02-23T02:47:37.790Z,15.25
2023-02-23T02:50:31.377Z,9.68
2023-02-23T02:53:35.932Z,12.02
2023-02-23T02:56:24.477Z,11.10
2023-02-23T02:59:35.253Z,11.73
2023-02-23T03:02:41.429Z,11.98
2023-02-23T03:05:55.853Z,12.27
2023-02-23T03:09:09.549Z,10.32
2023-02-23T03:12:35.304Z,13.50
2023-02-23T03:15:56.196Z,12.50
2023-02-23T03:19:19.722Z,10.00
2023-02-23T03:22:33.178Z,12.35
2023-02-23T03:25:53.342Z,10.32
2023-02-23T03:29:11.121Z,11.93
2023-02-23T03:32:24.449Z,13.00
2023-02-23T03:38:55.249Z,14.13
2023-02-23T03:42:01.866Z,11.80
2023-02-23T03:45:08.819Z,15.13
2023-02-23T03:48:14.919Z,14.13
2023-02-23T03:51:23.930Z,11.02
2023-02-23T03:54:48.920Z,13.30
2023-02-23T03:57:56.344Z,13.40
2023-02-23T04:01:06.808Z,13.15
2023-02-23T04:04:13.300Z,12.45
2023-02-23T04:07:20.785Z,17.52
2023-02-23T04:10:27.947Z,14.98
2023-02-23T04:13:22.345Z,18.75
2023-02-23T04:16:09.377Z,13.68
2023-02-23T04:18:55.156Z,13.70
2023-02-23T04:21:40.383Z,18.02
2023-02-23T04:24:25.926Z,13.95
2023-02-23T04:27:11.342Z,13.23
2023-02-23T04:29:56.840Z,12.40
2023-02-23T04:32:46.025Z,12.88
2023-02-23T04:35:31.619Z,11.25
2023-02-23T04:38:16.940Z,13.75
2023-02-23T04:41:02.163Z,13.02
2023-02-23T04:43:47.633Z,13.60
2023-02-23T04:46:33.067Z,12.05
2023-02-23T04:49:18.314Z,13.45
2023-02-23T04:52:03.984Z,10.93
2023-02-23T04:54:49.273Z,10.15
2023-02-23T04:57:35.686Z,12.32
2023-02-23T05:00:21.040Z,13.43
2023-02-23T05:03:06.584Z,11.40
2023-02-23T05:05:52.063Z,11.40
2023-02-23T05:08:37.367Z,15.40
2023-02-23T05:11:23.072Z,17.42
2023-02-23T05:14:09.236Z,13.30
2023-02-23T05:16:54.635Z,13.85
2023-02-23T05:19:40.013Z,13.95
2023-02-23T05:22:25.276Z,13.27
2023-02-23T05:25:11.878Z,12.60
2023-02-23T05:27:56.966Z,10.98
2023-02-23T05:30:42.528Z,14.38
2023-02-23T05:33:27.955Z,13.85
2023-02-23T05:36:16.571Z,13.50
2023-02-23T05:39:01.612Z,12.80
2023-02-23T05:41:47.330Z,18.30
2023-02-23T05:44:32.781Z,9.90
2023-02-23T05:47:18.444Z,11.32
2023-02-23T05:50:04.792Z,11.10
2023-02-23T05:52:50.100Z,10.77
2023-02-23T05:55:36.093Z,10.27
2023-02-23T05:58:21.514Z,17.77
2023-02-23T06:01:07.111Z,11.60
2023-02-23T06:03:52.515Z,14.10
2023-02-23T06:06:37.663Z,9.90
2023-02-23T06:09:23.152Z,11.00
2023-02-23T06:12:09.110Z,11.63
2023-02-23T06:14:54.775Z,11.65
2023-02-23T06:17:40.160Z,9.40
2023-02-23T06:20:25.700Z,14.50
2023-02-23T06:23:12.122Z,13.50
2023-02-23T06:25:58.532Z,12.32
2023-02-23T06:28:43.961Z,11.25
2023-02-23T06:31:29.554Z,11.93
2023-02-23T06:34:14.961Z,13.95
2023-02-23T06:37:00.442Z,13.65
2023-02-23T06:39:45.751Z,15.52
2023-02-23T06:42:31.208Z,11.23
2023-02-23T06:45:16.597Z,17.45
2023-02-23T06:48:02.226Z,16.13
2023-02-23T06:50:47.644Z,14.77
2023-02-23T06:53:33.552Z,14.23
2023-02-23T06:56:19.405Z,15.90
2023-02-23T06:59:04.379Z,14.02
2023-02-23T07:01:49.763Z,15.85
2023-02-23T07:04:35.010Z,13.30
2023-02-23T07:07:20.288Z,20.90
2023-02-23T07:10:07.189Z,13.45
2023-02-23T07:12:53.950Z,14.98
2023-02-23T07:15:40.668Z,14.40
2023-02-23T07:18:26.608Z,16.33
2023-02-23T07:21:11.757Z,15.32
2023-02-23T07:23:57.381Z,14.68
2023-02-23T07:26:47.080Z,16.55
2023-02-23T07:29:32.189Z,15.77
2023-02-23T07:32:17.773Z,14.02
2023-02-23T07:35:04.247Z,15.32
2023-02-23T07:37:49.803Z,18.42
2023-02-23T07:40:35.385Z,20.05
2023-02-23T07:43:24.150Z,16.38
2023-02-23T07:46:09.274Z,13.63
2023-02-23T07:48:54.716Z,14.93
2023-02-23T07:51:40.748Z,15.32
2023-02-23T07:54:26.497Z,14.25
2023-02-23T07:57:12.814Z,19.20
2023-02-23T07:59:57.989Z,18.17
2023-02-23T08:02:44.346Z,17.95
2023-02-23T08:05:29.814Z,17.65
2023-02-23T08:08:15.099Z,16.48
2023-02-23T08:11:02.070Z,17.77
2023-02-23T08:13:47.607Z,16.48
2023-02-23T08:16:34.020Z,16.52
2023-02-23T08:19:22.758Z,17.75
2023-02-23T08:22:10.133Z,16.02
2023-02-23T08:24:55.842Z,18.58
2023-02-23T08:27:41.474Z,21.27
2023-02-23T08:30:26.566Z,20.15
2023-02-23T08:33:11.862Z,18.52
2023-02-23T08:35:59.646Z,18.55
2023-02-23T08:38:44.751Z,22.83
2023-02-23T08:41:30.444Z,20.98
2023-02-23T08:44:15.780Z,21.98
2023-02-23T08:47:01.230Z,24.75
2023-02-23T08:49:46.611Z,28.63
2023-02-23T08:52:32.304Z,23.52
2023-02-23T08:55:18.535Z,21.52
2023-02-23T08:58:04.678Z,23.63
2023-02-23T09:00:50.206Z,25.25
2023-02-23T09:03:38.246Z,21.77
2023-02-23T09:06:25.939Z,26.02
2023-02-23T09:09:11.105Z,28.60
2023-02-23T09:11:58.419Z,29.67
2023-02-23T09:14:44.544Z,24.83
2023-02-23T09:17:30.209Z,27.55
2023-02-23T09:20:16.590Z,26.15
2023-02-23T09:23:01.922Z,27.70
2023-02-23T09:25:47.484Z,30.50
2023-02-23T09:28:33.985Z,29.10
2023-02-23T09:31:22.361Z,35.17
2023-02-23T09:34:09.365Z,28.10
2023-02-23T09:36:55.652Z,26.52
2023-02-23T09:39:40.745Z,34.67
2023-02-23T09:42:54.106Z,27.83
2023-02-23T09:45:47.497Z,31.60
2023-02-23T09:48:34.722Z,30.58
2023-02-23T09:51:23.445Z,29.50
2023-02-23T09:54:12.962Z,31.20
2023-02-23T09:57:03.471Z,34.75
2023-02-23T09:59:48.726Z,30.77
2023-02-23T10:02:39.640Z,33.22
2023-02-23T10:05:30.246Z,32.65
2023-02-23T10:08:39.531Z,36.78
2023-02-23T10:11:41.840Z,33.25
2023-02-23T10:15:06.572Z,33.67
2023-02-23T10:18:03.142Z,34.58
2023-02-23T10:21:23.458Z,34.67
2023-02-23T10:24:32.680Z,39.03
2023-02-23T10:27:21.604Z,35.47
2023-02-23T10:30:29.861Z,36.58
2023-02-23T10:33:36.162Z,38.17
2023-02-23T10:36:39.332Z,41.35
2023-02-23T10:42:17.172Z,36.38
2023-02-23T10:45:02.676Z,39.70
2023-02-23T10:47:52.800Z,41.53
2023-02-23T10:50:40.887Z,39.63
2023-02-23T10:53:32.715Z,38.50
2023-02-23T10:56:19.675Z,37.05
2023-02-23T10:59:05.129Z,41.00
2023-02-23T11:02:01.413Z,39.97
2023-02-23T11:04:57.193Z,36.35
2023-02-23T11:07:44.646Z,43.88
2023-02-23T11:10:30.962Z,36.20
2023-02-23T11:13:28.717Z,37.03
2023-02-23T11:16:19.575Z,34.78
2023-02-23T11:19:07.477Z,39.83
2023-02-23T11:21:53.221Z,34.85
2023-02-23T11:24:41.436Z,41.78
2023-02-23T11:27:27.997Z,33.72
2023-02-23T11:30:14.147Z,40.20
2023-02-23T11:33:09.538Z,33.03
2023-02-23T11:36:00.126Z,40.10
2023-02-23T11:38:47.648Z,38.20
2023-02-23T11:41:35.248Z,32.85
2023-02-23T11:44:24.724Z,35.13
2023-02-23T11:47:22.505Z,32.28
2023-02-23T11:50:19.903Z,39.17
2023-02-23T11:53:19.078Z,37.67
2023-02-23T11:56:12.524Z,40.63
2023-02-23T11:59:02.934Z,40.72
2023-02-23T12:01:52.569Z,37.92
2023-02-23T12:04:41.063Z,36.22
2023-02-23T12:07:38.856Z,37.58
2023-02-23T12:10:38.949Z,35.72
2023-02-23T12:13:45.371Z,39.42
2023-02-23T12:16:39.993Z,35.90
2023-02-23T12:19:39.076Z,33.67
2023-02-23T12:22:37.204Z,43.20
2023-02-23T12:25:43.398Z,35.35
2023-02-23T12:29:03.242Z,36.65
2023-02-23T12:32:08.308Z,42.25
2023-02-23T12:34:59.839Z,37.25
2023-02-23T12:37:48.042Z,38.65
2023-02-23T12:40:38.079Z,34.88
2023-02-23T12:43:49.169Z,39.97
2023-02-23T12:46:47.361Z,37.55
2023-02-23T12:49:44.191Z,39.83
2023-02-23T12:52:34.554Z,36.78
2023-02-23T12:55:41.470Z,37.30
2023-02-23T12:58:42.342Z,36.63
2023-02-23T13:01:33.324Z,31.50
2023-02-23T13:04:44.549Z,40.03
2023-02-23T13:07:42.564Z,69.28
2023-02-23T13:10:46.218Z,38.92
2023-02-23T13:13:48.489Z,36.72
2023-02-23T13:16:44.263Z,36.83
2023-02-23T13:19:42.463Z,32.10
2023-02-23T13:22:32.221Z,45.90
2023-02-23T13:25:25.157Z,38.80
2023-02-23T13:28:18.391Z,36.63
2023-02-23T13:31:05.881Z,36.35
2023-02-23T13:33:54.573Z,37.35
2023-02-23T13:36:42.041Z,41.03
2023-02-23T13:39:57.610Z,40.42
2023-02-23T13:42:58.659Z,39.85
2023-02-23T13:45:51.828Z,38.03
2023-02-23T13:48:59.336Z,38.05
2023-02-23T13:51:54.085Z,37.38
2023-02-23T13:54:57.248Z,36.78
2023-02-23T13:57:43.822Z,38.00
2023-02-23T14:00:29.562Z,37.63
2023-02-23T14:03:24.428Z,37.85
2023-02-23T14:06:14.712Z,35.92
2023-02-23T14:09:23.873Z,34.20
2023-02-23T14:12:23.247Z,37.03
2023-02-23T14:15:48.222Z,40.67
2023-02-23T14:18:34.015Z,44.92
2023-02-23T14:21:24.452Z,37.88
2023-02-23T14:24:24.581Z,36.45
2023-02-23T14:27:39.873Z,36.50
2023-02-23T14:30:29.341Z,39.33
2023-02-23T14:33:42.432Z,38.25
2023-02-23T14:36:34.748Z,47.28
2023-02-23T14:39:26.046Z,39.77
2023-02-23T14:42:21.666Z,43.42
2023-02-23T14:45:31.378Z,38.92
2023-02-23T14:48:19.441Z,42.80
2023-02-23T14:51:24.547Z,57.63
2023-02-23T14:54:15.504Z,63.88
2023-02-23T14:57:03.699Z,53.92
2023-02-23T14:59:57.905Z,45.67
2023-02-23T15:03:01.668Z,42.88
2023-02-23T15:05:56.007Z,44.22
2023-02-23T15:08:44.966Z,38.20
2023-02-23T15:11:31.564Z,38.88
2023-02-23T15:14:27.613Z,39.22
2023-02-23T15:17:17.874Z,33.75
2023-02-23T15:20:16.170Z,35.47
2023-02-23T15:23:04.828Z,33.58
2023-02-23T15:25:51.161Z,36.55
2023-02-23T15:28:40.847Z,33.08
2023-02-23T15:31:30.986Z,39.80
2023-02-23T15:34:20.381Z,38.28
2023-02-23T15:37:13.396Z,38.03
2023-02-23T15:40:10.557Z,37.13
2023-02-23T15:43:00.669Z,40.55
2023-02-23T15:45:54.618Z,37.45
2023-02-23T15:48:45.881Z,35.97
2023-02-23T15:51:33.878Z,35.58
2023-02-23T15:54:29.578Z,35.92
2023-02-23T15:57:28.784Z,36.58
2023-02-23T16:00:32.515Z,36.53
2023-02-23T16:03:32.224Z,41.45
2023-02-23T16:06:25.345Z,35.83
2023-02-23T16:09:24.047Z,35.97
2023-02-23T16:12:14.833Z,41.92
2023-02-23T16:15:21.205Z,30.92
2023-02-23T16:18:13.170Z,32.78
2023-02-23T16:21:00.294Z,32.05
2023-02-23T16:23:49.658Z,34.03
2023-02-23T16:26:46.955Z,28.25
2023-02-23T16:29:41.406Z,33.53
2023-02-23T16:32:34.719Z,30.65
2023-02-23T16:35:20.759Z,39.80
2023-02-23T16:38:14.214Z,28.13
2023-02-23T16:40:59.449Z,31.15
2023-02-23T16:43:47.387Z,32.45
2023-02-23T16:46:57.594Z,28.00
2023-02-23T16:49:43.032Z,29.50
2023-02-23T16:52:28.073Z,31.17
2023-02-23T16:55:18.565Z,32.08
2023-02-23T16:58:07.625Z,31.60
2023-02-23T17:00:53.655Z,30.38
2023-02-23T17:03:47.309Z,30.35
2023-02-23T17:06:36.624Z,33.40
2023-02-23T17:09:22.071Z,28.67
2023-02-23T17:12:09.886Z,26.58
2023-02-23T17:14:55.037Z,32.03
2023-02-23T17:17:40.648Z,32.83
2023-02-23T17:20:27.834Z,27.70
2023-02-23T17:23:12.980Z,28.80
2023-02-23T17:25:58.568Z,28.05
2023-02-23T17:28:44.469Z,33.42
2023-02-23T17:31:31.970Z,31.38
2023-02-23T17:34:17.609Z,30.33
2023-02-23T17:37:02.630Z,25.17
2023-02-23T17:39:50.964Z,27.63
2023-02-23T17:42:36.421Z,30.98
2023-02-23T17:45:22.690Z,39.63
2023-02-23T17:48:07.811Z,33.65
2023-02-23T17:51:02.148Z,33.72
2023-02-23T17:53:47.705Z,31.95
2023-02-23T17:56:33.077Z,28.35
2023-02-23T17:59:18.605Z,31.08
2023-02-23T18:02:05.140Z,29.13
2023-02-23T18:04:51.777Z,27.58
2023-02-23T18:07:37.550Z,29.23
2023-02-23T18:10:25.353Z,30.02
2023-02-23T18:13:10.750Z,29.83
2023-02-23T18:16:09.046Z,27.98
2023-02-23T18:18:56.367Z,26.33
2023-02-23T18:21:41.762Z,28.05
2023-02-23T18:24:28.218Z,26.02
2023-02-23T18:27:13.396Z,25.15
2023-02-23T18:29:59.160Z,27.75
2023-02-23T18:32:44.630Z,27.85
2023-02-23T18:35:38.952Z,26.95
2023-02-23T18:38:24.093Z,26.75
2023-02-23T18:41:10.146Z,37.03
2023-02-23T18:43:55.435Z,37.72
2023-02-23T18:46:42.421Z,37.50
2023-02-23T18:49:27.839Z,38.42
2023-02-23T18:52:13.181Z,37.10
2023-02-23T18:54:59.326Z,34.38
2023-02-23T18:57:45.021Z,37.05
2023-02-23T19:00:33.968Z,34.63
2023-02-23T19:03:19.415Z,35.00
2023-02-23T19:06:10.438Z,34.70
2023-02-23T19:08:57.402Z,35.05
2023-02-23T19:11:43.370Z,33.95
2023-02-23T19:14:48.003Z,34.53
2023-02-23T19:17:35.711Z,40.30
2023-02-23T19:20:22.861Z,30.60
2023-02-23T19:23:10.115Z,32.85
2023-02-23T19:25:55.704Z,28.92
2023-02-23T19:28:40.802Z,32.88
2023-02-23T19:31:27.245Z,38.17
2023-02-23T19:34:13.794Z,32.58
2023-02-23T19:36:59.254Z,29.92
2023-02-23T19:39:46.331Z,32.72
2023-02-23T19:42:32.738Z,27.20
2023-02-23T19:45:18.394Z,31.67
2023-02-23T19:48:04.107Z,32.20
2023-02-23T19:50:49.654Z,32.92
2023-02-23T19:53:35.560Z,31.63
2023-02-23T19:56:20.994Z,36.97
2023-02-23T19:59:06.501Z,37.50
2023-02-23T20:01:51.847Z,36.67
2023-02-23T20:04:37.407Z,39.47
2023-02-23T20:07:22.569Z,34.67
2023-02-23T20:10:10.208Z,34.55
2023-02-23T20:12:55.908Z,33.40
2023-02-23T20:15:41.171Z,33.70
2023-02-23T20:18:28.334Z,28.75
2023-02-23T20:21:20.420Z,26.92
2023-02-23T20:24:06.178Z,29.05
2023-02-23T20:26:53.264Z,30.27
2023-02-23T20:29:38.738Z,29.27
2023-02-23T20:32:24.250Z,28.40
2023-02-23T20:35:14.096Z,29.98
2023-02-23T20:37:59.977Z,29.23
2023-02-23T20:40:45.386Z,30.95
2023-02-23T20:43:31.239Z,32.10
2023-02-23T20:46:17.276Z,27.98
2023-02-23T20:49:04.105Z,29.50
2023-02-23T20:51:49.808Z,29.63
2023-02-23T20:54:35.013Z,27.38
2023-02-23T20:57:20.396Z,31.95
2023-02-23T21:00:10.740Z,28.48
2023-02-23T21:02:55.953Z,31.60
2023-02-23T21:05:41.916Z,28.90
2023-02-23T21:08:28.702Z,32.45
2023-02-23T21:11:14.219Z,22.60
2023-02-23T21:14:00.242Z,29.85
2023-02-23T21:16:46.214Z,27.85
2023-02-23T21:19:32.898Z,28.52
2023-02-23T21:22:17.915Z,23.80
2023-02-23T21:25:04.312Z,27.13
2023-02-23T21:27:50.265Z,29.23
2023-02-23T21:30:35.466Z,31.85
2023-02-23T21:33:20.950Z,31.45
2023-02-23T21:36:09.601Z,30.83
2023-02-23T21:38:54.868Z,27.80
2023-02-23T21:41:40.296Z,26.38
2023-02-23T21:44:25.915Z,27.23
2023-02-23T21:47:11.034Z,28.73
2023-02-23T21:49:56.607Z,29.52
2023-02-23T21:52:43.714Z,31.92
2023-02-23T21:55:29.377Z,29.58
2023-02-23T21:58:14.629Z,33.85
2023-02-23T22:01:00.049Z,36.08
2023-02-23T22:03:46.325Z,35.95
2023-02-23T22:06:36.873Z,36.67
2023-02-23T22:09:22.101Z,32.30
2023-02-23T22:12:07.765Z,33.80
2023-02-23T22:14:52.992Z,33.25
2023-02-23T22:17:38.627Z,35.28
2023-02-23T22:20:24.706Z,35.00
2023-02-23T22:23:09.830Z,31.55
2023-02-23T22:25:55.365Z,39.00
2023-02-23T22:28:40.724Z,36.00
2023-02-23T22:31:26.212Z,37.95
2023-02-23T22:34:11.454Z,33.67
2023-02-23T22:36:56.770Z,35.03
2023-02-23T22:39:43.166Z,38.65
2023-02-23T22:42:35.269Z,35.33
2023-02-23T22:45:20.676Z,31.98
2023-02-23T22:48:07.273Z,32.95
2023-02-23T22:50:52.402Z,40.70
2023-02-23T22:53:38.121Z,36.90
2023-02-23T22:56:23.734Z,34.45
2023-02-23T22:59:10.993Z,36.25
2023-02-23T23:01:56.433Z,37.13
2023-02-23T23:04:41.972Z,33.25
2023-02-23T23:07:27.878Z,35.70
2023-02-23T23:10:15.714Z,39.03
2023-02-23T23:13:03.101Z,36.50
2023-02-23T23:15:49.342Z,36.25
2023-02-23T23:18:35.996Z,37.35
2023-02-23T23:21:24.607Z,30.77
2023-02-23T23:24:13.204Z,34.63
2023-02-23T23:27:01.439Z,35.15
2023-02-23T23:29:48.031Z,35.45
2023-02-23T23:32:34.403Z,33.08
2023-02-23T23:35:21.833Z,28.30
2023-02-23T23:38:08.776Z,34.13
2023-02-23T23:40:54.084Z,37.83
2023-02-23T23:43:46.315Z,36.25
2023-02-23T23:46:35.357Z,32.92
2023-02-23T23:49:25.411Z,31.35
2023-02-23T23:52:10.489Z,31.95
2023-02-23T23:54:56.969Z,32.97
2023-02-23T23:57:42.654Z,32.22
